Change the Weather History Date:

Saturday, October 27, 2012

  Actual Average (KAXO) Record (KAXO)
Temperature  
Mean Temperature 59 °F -  
Max Temperature 68 °F 72 °F 80 °F (2014)
Min Temperature 50 °F 69 °F 55 °F (1997)
Degree Days  
Heating Degree Days 6    
Growing Degree Days 9 (Base 50)    
Moisture  
Dew Point 53 °F    
Average Humidity 83    
Maximum Humidity 100    
Minimum Humidity 56    
Precipitation  
Precipitation 0.00 in - - ()
Wind  
Wind Speed 15 mph (NW)    
Max Wind Speed 22 mph    
Max Gust Speed 28 mph    
Visibility 10 miles    
Events      
Averages and records for this station are not official NWS values.
T = Trace of Precipitation, MM = Missing Value Source: NWS Daily Summary

Daily Weather History Graph

Daily Weather History Graph

Search for Another Location

Airport or City:

Trip Planner

Search our weather history database for the weather conditions in past years. The results will help you decide how hot, cold, wet, or windy it might be!

Date:

Astronomy

Oct. 27, 2012 Rise Set
Actual Time 7:10 AM CDT 6:18 PM CDT
Civil Twilight 6:46 AM CDT 6:42 PM CDT
Nautical Twilight 6:18 AM CDT 7:10 PM CDT
Astronomical Twilight 5:50 AM CDT 7:38 PM CDT
Moon 4:59 PM CDT (10/27) 5:12 AM CDT (10/27)
Length of Visible Light 11h 56m
Length of Day
11h 07m
Waxing Gibbous, 96% of the Moon is Illuminated
Oct 27
Waxing Gibbous
Oct 29
Full
Nov 6
Last Quarter
Nov 13
New
Nov 20
First Quarter

Hourly Weather History & Observations

Time (CDT) Temp. Dew Point Humidity Pressure Visibility Wind Dir Wind Speed Gust Speed Precip Events Conditions
12:15 AM 62.6 °F 60.8 °F 94% - 10.0 mi NW 15.0 mph - N/A   Clear
12:35 AM 60.8 °F 59.0 °F 94% - 10.0 mi NW 13.8 mph 19.6 mph N/A   Scattered Clouds
12:55 AM 60.8 °F 59.0 °F 94% - 10.0 mi NW 16.1 mph - N/A   Mostly Cloudy
1:15 AM 60.8 °F 59.0 °F 94% - 10.0 mi NW 13.8 mph 19.6 mph N/A   Overcast
1:35 AM 60.8 °F 59.0 °F 94% - 10.0 mi NNW 12.7 mph 23.0 mph N/A   Overcast
1:55 AM 59.0 °F 59.0 °F 100% - 10.0 mi NNW 16.1 mph 23.0 mph N/A   Overcast
2:15 AM 59.0 °F 57.2 °F 94% - 10.0 mi NNW 17.3 mph 25.3 mph N/A   Overcast
2:35 AM 57.2 °F 55.4 °F 94% - 10.0 mi NNW 18.4 mph 24.2 mph N/A   Overcast
2:55 AM 57.2 °F 55.4 °F 94% - 10.0 mi NW 18.4 mph 25.3 mph N/A   Overcast
3:15 AM 57.2 °F 55.4 °F 94% - 10.0 mi NW 18.4 mph 23.0 mph N/A   Overcast
3:35 AM 57.2 °F 55.4 °F 94% - 10.0 mi NNW 12.7 mph 23.0 mph N/A   Overcast
3:55 AM 55.4 °F 55.4 °F 100% - 10.0 mi NNW 15.0 mph 24.2 mph N/A   Overcast
4:15 AM 55.4 °F 55.4 °F 100% - 10.0 mi NNW 19.6 mph 25.3 mph N/A   Overcast
4:35 AM 55.4 °F 55.4 °F 100% - 10.0 mi NNW 13.8 mph 20.7 mph N/A   Overcast
4:55 AM 55.4 °F 55.4 °F 100% - 10.0 mi NNW 17.3 mph 25.3 mph N/A   Overcast
5:15 AM 55.4 °F 53.6 °F 94% - 10.0 mi NNW 19.6 mph 26.5 mph N/A   Overcast
5:35 AM 55.4 °F 53.6 °F 94% - 10.0 mi NNW 18.4 mph 26.5 mph N/A   Unknown
5:55 AM 55.4 °F 53.6 °F 94% - 10.0 mi NNW 17.3 mph 27.6 mph N/A   Unknown
6:15 AM 55.4 °F 53.6 °F 94% - 10.0 mi NNW 21.9 mph 26.5 mph N/A   Unknown
6:35 AM 55.4 °F 53.6 °F 94% - 10.0 mi NNW 13.8 mph 23.0 mph N/A   Unknown
6:55 AM 55.4 °F 53.6 °F 94% - 10.0 mi NNW 16.1 mph 21.9 mph N/A   Unknown
7:15 AM 55.4 °F 53.6 °F 94% - 10.0 mi NNW 15.0 mph 25.3 mph N/A   Unknown
7:35 AM 55.4 °F 53.6 °F 94% - 10.0 mi NNW 15.0 mph 23.0 mph N/A   Unknown
7:55 AM 55.4 °F 53.6 °F 94% - 10.0 mi NNW 16.1 mph 23.0 mph N/A   Unknown
8:15 AM 55.4 °F 53.6 °F 94% - 10.0 mi NNW 15.0 mph 21.9 mph N/A   Unknown
8:35 AM 55.4 °F 53.6 °F 94% - 10.0 mi NNW 17.3 mph 24.2 mph N/A   Unknown
8:55 AM 55.4 °F 53.6 °F 94% - 10.0 mi NNW 18.4 mph 21.9 mph N/A   Unknown
9:15 AM 55.4 °F 53.6 °F 94% - 10.0 mi NNW 12.7 mph 24.2 mph N/A   Unknown
9:55 AM 57.2 °F 53.6 °F 88% - 10.0 mi NNW 15.0 mph 24.2 mph N/A   Unknown
10:15 AM 57.2 °F 53.6 °F 88% - 10.0 mi NNW 16.1 mph 24.2 mph N/A   Unknown
10:35 AM 57.2 °F 53.6 °F 88% - 10.0 mi NW 15.0 mph 23.0 mph N/A   Unknown
10:55 AM 59.0 °F 53.6 °F 82% - 10.0 mi NW 16.1 mph 21.9 mph N/A   Unknown
11:15 AM 59.0 °F 53.6 °F 82% - 10.0 mi NNW 15.0 mph 21.9 mph N/A   Unknown
11:35 AM 60.8 °F 53.6 °F 77% - 10.0 mi NW 16.1 mph 19.6 mph N/A   Unknown
12:15 PM 60.8 °F 51.8 °F 72% - 10.0 mi WNW 15.0 mph 19.6 mph N/A   Overcast
12:35 PM 62.6 °F 53.6 °F 72% - 10.0 mi NW 12.7 mph - N/A   Mostly Cloudy
12:55 PM 62.6 °F 51.8 °F 68% - 10.0 mi NW 18.4 mph 21.9 mph N/A   Scattered Clouds
1:15 PM 62.6 °F 51.8 °F 68% - 10.0 mi NNW 15.0 mph 21.9 mph N/A   Clear
1:35 PM 64.4 °F 53.6 °F 68% - 10.0 mi NNW 15.0 mph - N/A   Scattered Clouds
1:55 PM 64.4 °F 53.6 °F 68% - 10.0 mi NW 15.0 mph 20.7 mph N/A   Clear
2:15 PM 64.4 °F 53.6 °F 68% - 10.0 mi NNW 17.3 mph 20.7 mph N/A   Clear
2:35 PM 64.4 °F 53.6 °F 68% - 10.0 mi NNW 12.7 mph - N/A   Clear
2:55 PM 68.0 °F 51.8 °F 56% - 10.0 mi NW 13.8 mph 19.6 mph N/A   Clear
3:15 PM 68.0 °F 51.8 °F 56% - 10.0 mi NW 15.0 mph - N/A   Clear
3:35 PM 66.2 °F 51.8 °F 60% - 10.0 mi NNW 15.0 mph 20.7 mph N/A   Clear
3:55 PM 66.2 °F 51.8 °F 60% - 10.0 mi NNW 16.1 mph - N/A   Clear
4:15 PM 64.4 °F 51.8 °F 64% - 10.0 mi NNW 13.8 mph - N/A   Clear
4:35 PM 64.4 °F 51.8 °F 64% - 10.0 mi NNW 19.6 mph 24.2 mph N/A   Clear
4:55 PM 64.4 °F 51.8 °F 64% - 10.0 mi NNW 13.8 mph 18.4 mph N/A   Clear
5:15 PM 64.4 °F 51.8 °F 64% - 10.0 mi NNW 15.0 mph 19.6 mph N/A   Clear
5:35 PM 62.6 °F 51.8 °F 68% - 10.0 mi NNW 12.7 mph - N/A   Unknown
5:55 PM 60.8 °F 51.8 °F 72% - 10.0 mi NNW 16.1 mph 23.0 mph N/A   Unknown
6:15 PM 60.8 °F 51.8 °F 72% - 10.0 mi NNW 13.8 mph - N/A   Unknown
6:35 PM 59.0 °F 51.8 °F 77% - 10.0 mi NNW 13.8 mph 20.7 mph N/A   Unknown
6:55 PM 57.2 °F 50.0 °F 77% - 10.0 mi NNW 13.8 mph 20.7 mph N/A   Unknown
7:15 PM 57.2 °F 50.0 °F 77% - 10.0 mi NNW 11.5 mph - N/A   Unknown
7:35 PM 55.4 °F 50.0 °F 82% - 10.0 mi NNW 10.4 mph - N/A   Unknown
7:55 PM 55.4 °F 50.0 °F 82% - 10.0 mi NW 10.4 mph - N/A   Unknown
8:15 PM 55.4 °F 50.0 °F 82% - 10.0 mi NW 10.4 mph 17.3 mph N/A   Unknown
8:35 PM 55.4 °F 50.0 °F 82% - 10.0 mi NW 11.5 mph 18.4 mph N/A   Unknown
8:55 PM 55.4 °F 50.0 °F 82% - 10.0 mi NNW 13.8 mph 20.7 mph N/A   Unknown
9:15 PM 55.4 °F 48.2 °F 77% - 10.0 mi NNW 12.7 mph - N/A   Unknown
9:55 PM 55.4 °F 48.2 °F 77% - 10.0 mi NW 10.4 mph - N/A   Clear
10:15 PM 51.8 °F 46.4 °F 82% - 10.0 mi WNW 5.8 mph - N/A   Clear
10:35 PM 50.0 °F 46.4 °F 87% - 10.0 mi WNW 5.8 mph - N/A   Clear
10:55 PM 50.0 °F 46.4 °F 87% - 10.0 mi WNW 5.8 mph - N/A   Clear
11:15 PM 50.0 °F 48.2 °F 94% - 10.0 mi WNW 5.8 mph - N/A   Scattered Clouds
11:35 PM 50.0 °F 48.2 °F 94% - 10.0 mi WNW 4.6 mph - N/A   Unknown
11:55 PM 50.0 °F 46.4 °F 87% - 10.0 mi WNW 5.8 mph - N/A   Unknown